createdAt,value
2024-04-12T00:00:16.210Z,991.00
2024-04-12T00:01:16.156Z,995.00
2024-04-12T00:02:32.066Z,999.00
2024-04-12T00:03:16.195Z,992.00
2024-04-12T00:04:16.148Z,997.00
2024-04-12T00:05:16.160Z,1005.00
2024-04-12T00:06:16.196Z,1015.00
2024-04-12T00:07:18.007Z,1019.00
2024-04-12T00:08:16.142Z,991.00
2024-04-12T00:09:16.147Z,993.00
2024-04-12T00:10:16.135Z,993.00
2024-04-12T00:11:16.176Z,997.00
2024-04-12T00:12:16.241Z,997.00
2024-04-12T00:13:16.155Z,989.00
2024-04-12T00:14:16.153Z,998.00
2024-04-12T00:15:16.179Z,996.00
2024-04-12T00:16:16.188Z,990.00
2024-04-12T00:17:16.147Z,996.00
2024-04-12T00:18:17.136Z,976.00
2024-04-12T00:19:16.187Z,986.00
2024-04-12T00:20:16.157Z,982.00
2024-04-12T00:21:24.015Z,978.00
2024-04-12T00:22:16.260Z,979.00
2024-04-12T00:23:16.167Z,981.00
2024-04-12T00:24:19.002Z,980.00
2024-04-12T00:25:16.176Z,978.00
2024-04-12T00:26:16.159Z,991.00
2024-04-12T00:27:23.511Z,985.00
2024-04-12T00:28:16.172Z,986.00
2024-04-12T00:29:16.161Z,986.00
2024-04-12T00:30:42.533Z,985.00
2024-04-12T00:31:16.178Z,986.00
2024-04-12T00:32:16.208Z,991.00
2024-04-12T00:33:16.317Z,995.00
2024-04-12T00:34:16.246Z,1004.00
2024-04-12T00:35:16.195Z,1002.00
2024-04-12T00:36:16.282Z,1003.00
2024-04-12T00:37:16.298Z,991.00
2024-04-12T00:38:16.311Z,986.00
2024-04-12T00:39:16.360Z,983.00
2024-04-12T00:40:16.446Z,981.00
2024-04-12T00:41:16.467Z,977.00
2024-04-12T00:42:16.490Z,971.00
2024-04-12T00:43:16.547Z,975.00
2024-04-12T00:44:16.583Z,973.00
2024-04-12T00:45:16.738Z,971.00
2024-04-12T00:46:16.658Z,967.00
2024-04-12T00:47:16.726Z,964.00
2024-04-12T00:48:16.839Z,959.00
2024-04-12T00:49:16.786Z,950.00
2024-04-12T00:50:16.824Z,948.00
2024-04-12T00:51:16.890Z,954.00
2024-04-12T00:52:31.512Z,950.00
2024-04-12T00:53:17.309Z,951.00
2024-04-12T00:54:17.152Z,954.00
2024-04-12T00:55:32.026Z,959.00
2024-04-12T00:56:17.226Z,951.00
2024-04-12T00:57:17.174Z,956.00
2024-04-12T00:58:17.178Z,961.00
2024-04-12T00:59:17.186Z,967.00
2024-04-12T01:00:17.205Z,971.00
2024-04-12T01:01:17.373Z,971.00
2024-04-12T01:02:17.223Z,956.00
2024-04-12T01:03:17.261Z,961.00
2024-04-12T01:04:17.242Z,968.00
2024-04-12T01:05:17.195Z,960.00
2024-04-12T01:06:17.213Z,959.00
2024-04-12T01:07:17.191Z,958.00
2024-04-12T01:08:17.195Z,960.00
2024-04-12T01:09:17.199Z,962.00
2024-04-12T01:10:17.200Z,967.00
2024-04-12T01:11:17.248Z,963.00
2024-04-12T01:12:17.208Z,956.00
2024-04-12T01:13:17.213Z,961.00
2024-04-12T01:14:32.075Z,956.00
2024-04-12T01:15:17.217Z,957.00
2024-04-12T01:16:17.219Z,961.00
2024-04-12T01:17:20.182Z,966.00
2024-04-12T01:18:17.322Z,957.00
2024-04-12T01:19:17.211Z,959.00
2024-04-12T01:20:24.024Z,961.00
2024-04-12T01:21:17.267Z,957.00
2024-04-12T01:22:17.224Z,960.00
2024-04-12T01:23:53.087Z,961.00
2024-04-12T01:24:17.222Z,957.00
2024-04-12T01:25:17.216Z,965.00
2024-04-12T01:26:17.231Z,978.00
2024-04-12T01:27:17.228Z,984.00
2024-04-12T01:28:17.464Z,1006.00
2024-04-12T01:29:17.231Z,1018.00
2024-04-12T01:30:17.241Z,992.00
2024-04-12T01:31:17.230Z,990.00
2024-04-12T01:32:17.284Z,976.00
2024-04-12T01:33:17.382Z,987.00
2024-04-12T01:34:17.238Z,972.00
2024-04-12T01:35:17.229Z,965.00
2024-04-12T01:36:17.239Z,961.00
2024-04-12T01:37:17.309Z,963.00
2024-04-12T01:38:17.245Z,962.00
2024-04-12T01:39:20.039Z,956.00
2024-04-12T01:40:17.238Z,956.00
2024-04-12T01:41:17.241Z,957.00
2024-04-12T01:42:17.237Z,955.00
2024-04-12T01:43:17.241Z,950.00
2024-04-12T01:44:17.248Z,957.00
2024-04-12T01:45:20.045Z,961.00
2024-04-12T01:46:17.260Z,961.00
2024-04-12T01:47:17.251Z,962.00
2024-04-12T01:48:41.765Z,963.00
2024-04-12T01:49:17.264Z,962.00
2024-04-12T01:50:17.259Z,968.00
2024-04-12T01:51:31.557Z,972.00
2024-04-12T01:52:17.259Z,963.00
2024-04-12T01:53:17.263Z,968.00
2024-04-12T01:54:17.262Z,975.00
2024-04-12T01:55:17.272Z,980.00
2024-04-12T01:56:17.276Z,986.00
2024-04-12T01:57:17.309Z,969.00
2024-04-12T01:58:17.356Z,971.00
2024-04-12T01:59:17.419Z,965.00
2024-04-12T02:00:17.503Z,951.00
2024-04-12T02:01:17.621Z,962.00
2024-04-12T02:02:17.550Z,950.00
2024-04-12T02:03:17.628Z,952.00
2024-04-12T02:04:17.683Z,946.00
2024-04-12T02:05:17.706Z,953.00
2024-04-12T02:06:18.295Z,950.00
2024-04-12T02:07:28.558Z,952.00
2024-04-12T02:08:17.868Z,953.00
2024-04-12T02:09:17.768Z,954.00
2024-04-12T02:10:18.562Z,954.00
2024-04-12T02:11:17.820Z,955.00
2024-04-12T02:12:17.796Z,950.00
2024-04-12T02:13:32.557Z,942.00
2024-04-12T02:14:17.783Z,943.00
2024-04-12T02:15:17.781Z,948.00
2024-04-12T02:16:40.575Z,953.00
2024-04-12T02:17:17.782Z,944.00
2024-04-12T02:18:17.817Z,952.00
2024-04-12T02:19:17.923Z,963.00
2024-04-12T02:20:17.801Z,979.00
2024-04-12T02:21:17.842Z,985.00
2024-04-12T02:22:17.791Z,987.00
2024-04-12T02:23:17.789Z,970.00
2024-04-12T02:24:17.793Z,973.00
2024-04-12T02:25:17.814Z,966.00
2024-04-12T02:26:17.819Z,972.00
2024-04-12T02:27:17.796Z,968.00
2024-04-12T02:28:17.806Z,963.00
2024-04-12T02:29:17.792Z,959.00
2024-04-12T02:30:17.854Z,962.00
2024-04-12T02:31:17.809Z,959.00
2024-04-12T02:32:17.867Z,962.00
2024-04-12T02:33:18.168Z,956.00
2024-04-12T02:34:17.929Z,954.00
2024-04-12T02:35:32.611Z,946.00
2024-04-12T02:36:18.376Z,947.00
2024-04-12T02:37:18.226Z,951.00
2024-04-12T02:38:33.248Z,954.00
2024-04-12T02:39:18.253Z,947.00
2024-04-12T02:40:18.259Z,953.00
2024-04-12T02:41:39.555Z,961.00
2024-04-12T02:42:18.261Z,948.00
2024-04-12T02:43:18.272Z,956.00
2024-04-12T02:44:54.115Z,967.00
2024-04-12T02:45:18.267Z,947.00
2024-04-12T02:46:18.269Z,958.00
2024-04-12T02:47:18.297Z,978.00
2024-04-12T02:48:18.367Z,997.00
2024-04-12T02:49:18.278Z,1013.00
2024-04-12T02:50:18.287Z,1025.00
2024-04-12T02:51:18.282Z,1006.00
2024-04-12T02:52:18.277Z,995.00
2024-04-12T02:53:18.279Z,990.00
2024-04-12T02:54:18.383Z,984.00
2024-04-12T02:55:18.283Z,993.00
2024-04-12T02:56:18.290Z,979.00
2024-04-12T02:57:18.288Z,975.00
2024-04-12T02:58:18.280Z,967.00
2024-04-12T02:59:18.281Z,969.00
2024-04-12T03:00:25.092Z,963.00
2024-04-12T03:01:18.310Z,964.00
2024-04-12T03:02:18.358Z,965.00
2024-04-12T03:03:34.655Z,966.00
2024-04-12T03:04:18.296Z,965.00
2024-04-12T03:05:18.288Z,969.00
2024-04-12T03:06:21.610Z,974.00
2024-04-12T03:07:18.302Z,964.00
2024-04-12T03:08:18.307Z,967.00
2024-04-12T03:09:34.621Z,971.00
2024-04-12T03:10:18.321Z,965.00
2024-04-12T03:11:18.327Z,969.00
2024-04-12T03:12:18.409Z,976.00
2024-04-12T03:13:18.316Z,984.00
2024-04-12T03:14:18.320Z,987.00
2024-04-12T03:15:18.316Z,978.00
2024-04-12T03:16:18.337Z,972.00
2024-04-12T03:17:18.325Z,969.00
2024-04-12T03:18:18.384Z,952.00
2024-04-12T03:19:18.330Z,959.00
2024-04-12T03:20:18.329Z,951.00
2024-04-12T03:21:18.332Z,959.00
2024-04-12T03:22:18.325Z,945.00
2024-04-12T03:23:18.324Z,951.00
2024-04-12T03:24:18.374Z,931.00
2024-04-12T03:25:18.331Z,950.00
2024-04-12T03:26:18.336Z,940.00
2024-04-12T03:27:18.358Z,942.00
2024-04-12T03:28:33.095Z,925.00
2024-04-12T03:29:18.702Z,927.00
2024-04-12T03:30:18.323Z,931.00
2024-04-12T03:31:32.618Z,937.00
2024-04-12T03:32:18.345Z,928.00
2024-04-12T03:33:18.416Z,935.00
2024-04-12T03:34:39.427Z,945.00
2024-04-12T03:35:18.402Z,927.00
2024-04-12T03:36:18.348Z,936.00
2024-04-12T03:37:54.098Z,945.00
2024-04-12T03:38:18.350Z,927.00
2024-04-12T03:39:18.355Z,938.00
2024-04-12T03:40:18.421Z,956.00
2024-04-12T03:41:18.362Z,982.00
2024-04-12T03:42:18.439Z,997.00
2024-04-12T03:43:18.355Z,1019.00
2024-04-12T03:44:18.360Z,1010.00
2024-04-12T03:45:18.478Z,1005.00
2024-04-12T03:46:18.355Z,988.00
2024-04-12T03:47:18.362Z,985.00
2024-04-12T03:48:18.466Z,982.00
2024-04-12T03:49:18.356Z,986.00
2024-04-12T03:50:18.356Z,979.00
2024-04-12T03:51:18.403Z,976.00
2024-04-12T03:52:18.364Z,978.00
2024-04-12T03:53:18.372Z,970.00
2024-04-12T03:54:18.371Z,977.00
2024-04-12T03:55:18.366Z,970.00
2024-04-12T03:56:20.145Z,964.00
2024-04-12T03:57:18.466Z,964.00
2024-04-12T03:58:18.498Z,966.00
2024-04-12T03:59:33.141Z,956.00
2024-04-12T04:00:18.440Z,958.00
2024-04-12T04:01:18.388Z,961.00
2024-04-12T04:02:41.659Z,969.00
2024-04-12T04:03:18.383Z,958.00
2024-04-12T04:04:18.386Z,965.00
2024-04-12T04:05:18.396Z,977.00
2024-04-12T04:06:18.412Z,987.00
2024-04-12T04:07:19.808Z,988.00
2024-04-12T04:08:18.622Z,995.00
2024-04-12T04:09:18.480Z,990.00
2024-04-12T04:10:18.520Z,985.00
2024-04-12T04:11:18.599Z,971.00
2024-04-12T04:12:19.386Z,971.00
2024-04-12T04:13:18.669Z,961.00
2024-04-12T04:14:18.716Z,962.00
2024-04-12T04:15:18.856Z,959.00
2024-04-12T04:16:18.823Z,948.00
2024-04-12T04:17:18.968Z,959.00
2024-04-12T04:18:25.678Z,957.00
2024-04-12T04:19:19.140Z,958.00
2024-04-12T04:20:18.927Z,953.00
2024-04-12T04:21:26.628Z,954.00
2024-04-12T04:22:18.932Z,958.00
2024-04-12T04:23:18.932Z,960.00
2024-04-12T04:24:18.933Z,957.00
2024-04-12T04:25:18.930Z,959.00
2024-04-12T04:26:18.933Z,952.00
2024-04-12T04:27:40.042Z,951.00
2024-04-12T04:28:18.940Z,953.00
2024-04-12T04:29:18.929Z,957.00
2024-04-12T04:30:54.626Z,962.00
2024-04-12T04:31:19.753Z,952.00
2024-04-12T04:32:19.123Z,962.00
2024-04-12T04:33:19.067Z,975.00
2024-04-12T04:34:18.947Z,991.00
2024-04-12T04:35:18.945Z,1004.00
2024-04-12T04:36:18.948Z,1015.00
2024-04-12T04:37:23.333Z,1003.00
2024-04-12T04:38:19.956Z,1004.00
2024-04-12T04:39:18.983Z,1003.00
2024-04-12T04:40:19.963Z,999.00
2024-04-12T04:41:18.955Z,982.00
2024-04-12T04:42:18.958Z,970.00
2024-04-12T04:43:18.958Z,988.00
2024-04-12T04:44:18.990Z,979.00
2024-04-12T04:45:19.328Z,965.00
2024-04-12T04:46:18.961Z,971.00
2024-04-12T04:47:18.959Z,960.00
2024-04-12T04:48:19.182Z,959.00
2024-04-12T04:49:19.060Z,953.00
2024-04-12T04:50:18.955Z,958.00
2024-04-12T04:51:19.042Z,940.00
2024-04-12T04:52:26.393Z,600.00
2024-04-12T04:53:26.359Z,600.00
2024-04-12T04:54:26.372Z,600.00
2024-04-12T04:55:47.384Z,600.00
2024-04-12T04:56:26.369Z,600.00
2024-04-12T04:57:26.359Z,600.00
2024-04-12T04:58:40.965Z,600.00
2024-04-12T04:59:26.579Z,600.00
2024-04-12T05:00:26.639Z,600.00
2024-04-12T05:01:26.667Z,600.00
2024-04-12T05:02:26.671Z,600.00
2024-04-12T05:03:26.759Z,600.00
2024-04-12T05:04:26.703Z,605.00
2024-04-12T05:05:27.428Z,601.00
2024-04-12T05:06:26.785Z,605.00
2024-04-12T05:07:26.786Z,601.00
2024-04-12T05:08:26.815Z,602.00
2024-04-12T05:09:26.844Z,601.00
2024-04-12T05:10:27.290Z,606.00
2024-04-12T05:11:26.987Z,603.00
2024-04-12T05:12:27.049Z,602.00
2024-04-12T05:13:27.128Z,605.00
2024-04-12T05:14:26.987Z,606.00
2024-04-12T05:15:26.999Z,602.00
2024-04-12T05:16:27.037Z,606.00
2024-04-12T05:17:30.532Z,607.00
2024-04-12T05:18:27.128Z,609.00
2024-04-12T05:19:27.079Z,602.00
2024-04-12T05:20:42.113Z,603.00
2024-04-12T05:21:27.058Z,604.00
2024-04-12T05:22:27.069Z,605.00
2024-04-12T05:23:55.008Z,608.00
2024-04-12T05:24:27.069Z,604.00
2024-04-12T05:25:27.070Z,607.00
2024-04-12T05:26:55.017Z,611.00
2024-04-12T05:27:27.083Z,604.00
2024-04-12T05:28:27.078Z,608.00
2024-04-12T05:29:27.099Z,614.00
2024-04-12T05:30:27.088Z,623.00
2024-04-12T05:31:27.091Z,631.00
2024-04-12T05:32:27.534Z,632.00
2024-04-12T05:33:27.163Z,631.00
2024-04-12T05:34:27.099Z,629.00
2024-04-12T05:35:27.088Z,632.00
2024-04-12T05:36:28.001Z,634.00
2024-04-12T05:37:27.492Z,634.00
2024-04-12T05:38:27.091Z,638.00
2024-04-12T05:39:27.164Z,648.00
2024-04-12T05:40:27.094Z,649.00
2024-04-12T05:41:27.094Z,651.00
2024-04-12T05:42:27.559Z,655.00
2024-04-12T05:43:27.096Z,660.00
2024-04-12T05:44:27.098Z,660.00
2024-04-12T05:45:41.991Z,664.00
2024-04-12T05:46:27.106Z,664.00
2024-04-12T05:47:27.143Z,668.00
2024-04-12T05:48:48.184Z,680.00
2024-04-12T05:49:27.115Z,665.00
2024-04-12T05:50:27.125Z,677.00
2024-04-12T05:51:48.164Z,700.00
2024-04-12T05:52:27.113Z,665.00
2024-04-12T05:53:27.121Z,685.00
2024-04-12T05:54:27.127Z,724.00
2024-04-12T05:55:27.112Z,782.00
2024-04-12T05:56:27.429Z,878.00
2024-04-12T05:57:27.502Z,919.00
2024-04-12T05:58:27.118Z,934.00
2024-04-12T05:59:27.126Z,956.00
2024-04-12T06:00:27.125Z,961.00
2024-04-12T06:01:27.318Z,977.00
2024-04-12T06:02:27.165Z,983.00
2024-04-12T06:03:27.177Z,990.00
2024-04-12T06:04:27.119Z,1005.00
2024-04-12T06:05:27.133Z,1019.00
2024-04-12T06:06:27.142Z,1037.00
2024-04-12T06:07:27.129Z,1051.00
2024-04-12T06:08:27.137Z,1062.00
2024-04-12T06:09:27.190Z,1078.00
2024-04-12T06:10:29.999Z,1094.00
2024-04-12T06:11:27.203Z,1095.00
2024-04-12T06:12:27.301Z,1099.00
2024-04-12T06:13:34.003Z,1114.00
2024-04-12T06:14:27.141Z,1097.00
2024-04-12T06:15:27.147Z,1107.00
2024-04-12T06:16:51.543Z,1128.00
2024-04-12T06:17:27.182Z,1097.00
2024-04-12T06:18:27.302Z,1115.00
2024-04-12T06:20:27.172Z,1096.00
2024-04-12T06:21:27.181Z,1123.00
2024-04-12T06:22:27.170Z,1175.00
2024-04-12T06:23:29.030Z,1252.00
2024-04-12T06:24:27.166Z,1363.00
2024-04-12T06:25:27.164Z,1438.00
2024-04-12T06:26:27.171Z,1444.00
2024-04-12T06:27:27.172Z,1445.00
2024-04-12T06:28:27.174Z,1452.00
2024-04-12T06:29:32.968Z,1450.00
2024-04-12T06:30:28.172Z,1451.00
2024-04-12T06:31:27.161Z,1456.00
2024-04-12T06:32:30.594Z,1457.00
2024-04-12T06:33:27.258Z,1465.00
2024-04-12T06:34:27.199Z,1475.00
2024-04-12T06:35:34.013Z,1475.00
2024-04-12T06:36:27.181Z,1476.00
2024-04-12T06:37:27.175Z,1479.00
2024-04-12T06:38:27.197Z,1480.00
2024-04-12T06:39:27.164Z,1493.00
2024-04-12T06:40:27.162Z,1512.00
2024-04-12T06:41:34.014Z,1523.00
2024-04-12T06:42:27.179Z,1524.00
2024-04-12T06:43:27.172Z,1529.00
2024-04-12T06:44:48.268Z,1535.00
2024-04-12T06:45:27.182Z,1526.00
2024-04-12T06:46:27.182Z,1536.00
2024-04-12T06:47:27.337Z,1554.00
2024-04-12T06:48:27.282Z,1574.00
2024-04-12T06:49:27.184Z,1606.00
2024-04-12T06:50:27.189Z,1624.00
2024-04-12T06:51:27.191Z,1605.00
2024-04-12T06:52:27.237Z,1606.00
2024-04-12T06:53:27.202Z,1599.00
2024-04-12T06:54:27.195Z,1611.00
2024-04-12T06:55:27.191Z,1602.00
2024-04-12T06:56:27.200Z,1610.00
2024-04-12T06:57:27.231Z,1606.00
2024-04-12T06:58:27.204Z,1606.00
2024-04-12T06:59:27.217Z,1615.00
2024-04-12T07:00:27.308Z,1620.00
2024-04-12T07:01:27.267Z,1615.00
2024-04-12T07:02:27.381Z,1615.00
2024-04-12T07:03:27.338Z,1602.00
2024-04-12T07:04:27.218Z,1613.00
2024-04-12T07:05:27.208Z,1618.00
2024-04-12T07:06:42.040Z,1595.00
2024-04-12T07:07:27.216Z,1596.00
2024-04-12T07:08:27.210Z,1601.00
2024-04-12T07:09:42.027Z,1608.00
2024-04-12T07:10:27.224Z,1597.00
2024-04-12T07:11:27.215Z,1604.00
2024-04-12T07:12:48.254Z,1610.00
2024-04-12T07:13:27.236Z,1597.00
2024-04-12T07:14:27.226Z,1608.00
2024-04-12T07:15:27.222Z,1622.00
2024-04-12T07:16:27.223Z,1647.00
2024-04-12T07:17:27.394Z,1662.00
2024-04-12T07:18:27.300Z,1677.00
2024-04-12T07:19:27.229Z,1660.00
2024-04-12T07:20:28.767Z,1660.00
2024-04-12T07:21:27.284Z,1661.00
2024-04-12T07:22:27.231Z,1665.00
2024-04-12T07:23:27.235Z,1677.00
2024-04-12T07:24:27.229Z,1700.00
2024-04-12T07:25:27.228Z,1737.00
2024-04-12T07:26:27.238Z,1750.00
2024-04-12T07:27:27.237Z,1772.00
2024-04-12T07:28:34.543Z,1790.00
2024-04-12T07:29:27.228Z,1790.00
2024-04-12T07:30:27.241Z,1793.00
2024-04-12T07:31:27.235Z,1795.00
2024-04-12T07:32:27.378Z,1800.00
2024-04-12T07:33:27.381Z,1806.00
2024-04-12T07:34:42.043Z,1806.00
2024-04-12T07:35:27.307Z,1807.00
2024-04-12T07:36:27.247Z,1809.00
2024-04-12T07:37:51.551Z,1813.00
2024-04-12T07:38:27.253Z,1808.00
2024-04-12T07:39:27.299Z,1818.00
2024-04-12T07:40:27.337Z,1829.00
2024-04-12T07:41:27.291Z,1844.00
2024-04-12T07:42:27.282Z,1862.00
2024-04-12T07:43:27.274Z,1861.00
2024-04-12T07:44:27.270Z,1843.00
2024-04-12T07:45:27.284Z,1848.00
2024-04-12T07:46:27.271Z,1825.00
2024-04-12T07:47:27.322Z,1815.00
2024-04-12T07:48:30.722Z,1845.00
2024-04-12T07:49:28.304Z,1846.00
2024-04-12T07:50:27.292Z,1846.00
2024-04-12T07:51:27.281Z,1852.00
2024-04-12T07:52:27.285Z,1860.00
2024-04-12T07:53:27.334Z,1861.00
2024-04-12T07:54:27.294Z,1864.00
2024-04-12T07:55:27.281Z,1867.00
2024-04-12T07:56:34.563Z,1854.00
2024-04-12T07:57:27.288Z,1855.00
2024-04-12T07:58:27.292Z,1857.00
2024-04-12T07:59:48.311Z,1859.00
2024-04-12T08:00:27.301Z,1856.00
2024-04-12T08:01:27.536Z,1862.00
2024-04-12T08:02:41.691Z,1865.00
2024-04-12T08:03:27.594Z,1856.00
2024-04-12T08:04:27.506Z,1859.00
2024-04-12T08:05:48.357Z,1863.00
2024-04-12T08:06:27.317Z,1856.00
2024-04-12T08:07:29.213Z,1863.00
2024-04-12T08:08:27.331Z,1856.00
2024-04-12T08:09:27.345Z,1862.00
2024-04-12T08:10:27.337Z,1862.00
2024-04-12T08:11:27.352Z,1863.00
2024-04-12T08:12:27.343Z,1859.00
2024-04-12T08:13:27.330Z,1836.00
2024-04-12T08:14:27.338Z,1839.00
2024-04-12T08:15:27.376Z,1834.00
2024-04-12T08:16:27.343Z,1829.00
2024-04-12T08:17:27.499Z,1823.00
2024-04-12T08:18:27.587Z,1819.00
2024-04-12T08:19:27.505Z,1806.00
2024-04-12T08:20:27.499Z,1801.00
2024-04-12T08:21:27.586Z,1777.00
2024-04-12T08:22:27.661Z,1742.00
2024-04-12T08:23:27.359Z,1723.00
2024-04-12T08:24:34.066Z,1687.00
2024-04-12T08:25:27.365Z,1688.00
2024-04-12T08:26:27.379Z,1685.00
2024-04-12T08:27:41.575Z,1677.00
2024-04-12T08:28:27.369Z,1688.00
2024-04-12T08:29:27.362Z,1674.00
2024-04-12T08:30:55.077Z,1642.00
2024-04-12T08:31:27.374Z,1688.00
2024-04-12T08:32:27.400Z,1690.00
2024-04-12T08:33:27.437Z,1667.00
2024-04-12T08:34:27.374Z,1617.00
2024-04-12T08:35:27.439Z,1577.00
2024-04-12T08:36:27.423Z,1511.00
2024-04-12T08:37:27.392Z,1464.00
2024-04-12T08:38:27.391Z,1431.00
2024-04-12T08:39:27.418Z,1396.00
2024-04-12T08:40:27.872Z,1387.00
2024-04-12T08:41:27.391Z,1366.00
2024-04-12T08:42:27.386Z,1344.00
2024-04-12T08:43:27.383Z,1339.00
2024-04-12T08:44:27.408Z,1347.00
2024-04-12T08:45:27.394Z,1347.00
2024-04-12T08:46:27.404Z,1333.00
2024-04-12T08:47:27.448Z,1348.00
2024-04-12T08:48:27.563Z,1349.00
2024-04-12T08:49:34.583Z,1351.00
2024-04-12T08:50:27.382Z,1351.00
2024-04-12T08:51:27.385Z,1347.00
2024-04-12T08:52:38.098Z,1352.00
2024-04-12T08:53:27.403Z,1352.00
2024-04-12T08:54:27.415Z,1353.00
2024-04-12T08:55:42.083Z,1352.00
2024-04-12T08:56:27.435Z,1353.00
2024-04-12T08:57:27.594Z,1357.00
2024-04-12T08:58:53.700Z,1366.00
2024-04-12T08:59:27.406Z,1354.00
2024-04-12T09:00:28.909Z,1364.00
2024-04-12T09:01:27.460Z,1378.00
2024-04-12T09:02:27.408Z,1391.00
2024-04-12T09:03:28.117Z,1400.00
2024-04-12T09:04:27.521Z,1403.00
2024-04-12T09:05:27.416Z,1404.00
2024-04-12T09:06:27.401Z,1406.00
2024-04-12T09:07:27.411Z,1396.00
2024-04-12T09:08:29.951Z,1393.00
2024-04-12T09:09:27.488Z,1392.00
2024-04-12T09:10:27.440Z,1384.00
2024-04-12T09:11:27.490Z,1383.00
2024-04-12T09:12:27.431Z,1392.00
2024-04-12T09:13:29.306Z,1398.00
2024-04-12T09:14:30.089Z,1398.00
2024-04-12T09:15:27.446Z,1399.00
2024-04-12T09:16:27.442Z,1402.00
2024-04-12T09:17:27.684Z,1407.00
2024-04-12T09:18:28.198Z,1417.00
2024-04-12T09:19:27.716Z,1438.00
2024-04-12T09:20:27.443Z,1440.00
2024-04-12T09:21:27.563Z,1439.00
2024-04-12T09:22:27.445Z,1445.00
2024-04-12T09:23:48.476Z,1454.00
2024-04-12T09:24:27.460Z,1456.00
2024-04-12T09:25:27.537Z,1464.00
2024-04-12T09:26:27.661Z,1475.00
2024-04-12T09:27:27.483Z,1475.00
2024-04-12T09:28:27.461Z,1457.00
2024-04-12T09:29:27.456Z,1436.00
2024-04-12T09:30:27.463Z,1401.00
2024-04-12T09:31:27.464Z,1352.00
2024-04-12T09:32:27.647Z,1296.00
2024-04-12T09:33:27.575Z,1256.00
2024-04-12T09:34:27.614Z,1209.00
2024-04-12T09:35:27.478Z,1182.00
2024-04-12T09:36:27.555Z,1131.00
2024-04-12T09:37:27.500Z,1086.00
2024-04-12T09:38:27.482Z,1031.00
2024-04-12T09:39:34.103Z,958.00
2024-04-12T09:40:27.463Z,958.00
2024-04-12T09:41:27.472Z,932.00
2024-04-12T09:42:27.474Z,884.00
2024-04-12T09:43:27.485Z,869.00
2024-04-12T09:44:27.496Z,836.00
2024-04-12T09:45:34.264Z,801.00
2024-04-12T09:46:27.481Z,801.00
2024-04-12T09:47:27.655Z,768.00
2024-04-12T09:48:43.786Z,731.00
2024-04-12T09:49:27.510Z,769.00
2024-04-12T09:50:27.503Z,719.00
2024-04-12T09:51:27.590Z,694.00
2024-04-12T09:52:27.518Z,662.00
2024-04-12T09:53:27.497Z,650.00
2024-04-12T09:54:27.485Z,642.00
2024-04-12T09:55:27.491Z,632.00
2024-04-12T09:56:27.485Z,620.00
2024-04-12T09:57:27.512Z,615.00
2024-04-12T09:58:27.513Z,614.00
2024-04-12T09:59:27.493Z,610.00
2024-04-12T10:00:27.493Z,600.00
2024-04-12T10:01:27.507Z,600.00
2024-04-12T10:02:27.556Z,605.00
2024-04-12T10:03:27.592Z,604.00
2024-04-12T10:04:27.514Z,600.00
2024-04-12T10:05:27.509Z,600.00
2024-04-12T10:06:27.575Z,603.00
2024-04-12T10:07:32.645Z,602.00
2024-04-12T10:08:27.602Z,600.00
2024-04-12T10:09:27.616Z,595.00
2024-04-12T10:10:43.111Z,584.00
2024-04-12T10:11:27.681Z,602.00
2024-04-12T10:12:27.623Z,598.00
2024-04-12T10:13:42.125Z,589.00
2024-04-12T10:14:27.763Z,602.00
2024-04-12T10:15:27.809Z,595.00
2024-04-12T10:16:43.583Z,588.00
2024-04-12T10:17:27.945Z,602.00
2024-04-12T10:18:28.008Z,603.00
2024-04-12T10:19:27.887Z,601.00
2024-04-12T10:20:27.892Z,595.00
2024-04-12T10:21:27.907Z,592.00
2024-04-12T10:22:27.904Z,600.00
2024-04-12T10:23:27.900Z,600.00
2024-04-12T10:24:27.931Z,600.00
2024-04-12T10:25:27.919Z,605.00
2024-04-12T10:26:28.120Z,600.00
2024-04-12T10:27:28.177Z,604.00
2024-04-12T10:28:27.904Z,603.00
2024-04-12T10:29:27.910Z,602.00
2024-04-12T10:30:27.907Z,606.00
2024-04-12T10:31:27.914Z,608.00
2024-04-12T10:32:28.218Z,613.00
2024-04-12T10:33:28.064Z,611.00
2024-04-12T10:34:27.901Z,614.00
2024-04-12T10:35:34.625Z,618.00
2024-04-12T10:36:28.001Z,619.00
2024-04-12T10:37:27.909Z,621.00
2024-04-12T10:38:41.180Z,624.00
2024-04-12T10:39:28.982Z,619.00
2024-04-12T10:40:27.927Z,623.00
2024-04-12T10:41:51.668Z,631.00
2024-04-12T10:42:27.923Z,619.00
2024-04-12T10:43:27.919Z,626.00
2024-04-12T10:45:27.950Z,619.00
2024-04-12T10:46:27.958Z,628.00
2024-04-12T10:47:27.923Z,644.00
2024-04-12T10:48:27.974Z,670.00
2024-04-12T10:49:27.930Z,750.00
2024-04-12T10:50:27.936Z,808.00
2024-04-12T10:51:27.936Z,816.00
2024-04-12T10:52:27.958Z,811.00
2024-04-12T10:53:27.949Z,806.00
2024-04-12T10:54:27.930Z,804.00
2024-04-12T10:55:27.938Z,816.00
2024-04-12T10:56:27.964Z,807.00
2024-04-12T10:57:28.023Z,813.00
2024-04-12T10:58:27.942Z,807.00
2024-04-12T10:59:28.042Z,829.00
2024-04-12T11:00:34.742Z,816.00
2024-04-12T11:01:28.392Z,816.00
2024-04-12T11:02:28.002Z,818.00
2024-04-12T11:03:42.711Z,821.00
2024-04-12T11:04:27.995Z,817.00
2024-04-12T11:05:28.041Z,822.00
2024-04-12T11:06:48.974Z,829.00
2024-04-12T11:07:27.972Z,818.00
2024-04-12T11:08:28.170Z,827.00
2024-04-12T11:09:48.974Z,843.00
2024-04-12T11:10:27.969Z,819.00
2024-04-12T11:11:28.002Z,830.00
2024-04-12T11:12:28.160Z,845.00
2024-04-12T11:13:27.987Z,871.00
2024-04-12T11:14:27.992Z,895.00
2024-04-12T11:15:28.043Z,895.00
2024-04-12T11:16:28.008Z,880.00
2024-04-12T11:17:28.005Z,878.00
2024-04-12T11:18:28.118Z,867.00
2024-04-12T11:19:28.024Z,862.00
2024-04-12T11:20:28.006Z,849.00
2024-04-12T11:21:27.999Z,850.00
2024-04-12T11:22:28.023Z,842.00
2024-04-12T11:23:27.993Z,843.00
2024-04-12T11:24:28.003Z,840.00
2024-04-12T11:25:27.996Z,819.00
2024-04-12T11:26:28.025Z,822.00
2024-04-12T11:27:28.073Z,820.00
2024-04-12T11:28:44.171Z,819.00
2024-04-12T11:29:28.026Z,821.00
2024-04-12T11:30:28.015Z,823.00
2024-04-12T11:31:49.075Z,825.00
2024-04-12T11:32:28.020Z,821.00
2024-04-12T11:33:33.870Z,828.00
2024-04-12T11:35:00.270Z,822.00
2024-04-12T11:35:28.033Z,821.00
2024-04-12T11:36:28.031Z,834.00
2024-04-12T11:37:49.470Z,850.00
2024-04-12T11:38:28.035Z,822.00
2024-04-12T11:39:28.042Z,833.00
2024-04-12T11:40:28.050Z,849.00
2024-04-12T11:41:28.084Z,863.00
2024-04-12T11:42:28.048Z,884.00
2024-04-12T11:43:28.330Z,860.00
2024-04-12T11:44:28.129Z,853.00
2024-04-12T11:45:28.055Z,842.00
2024-04-12T11:46:28.074Z,836.00
2024-04-12T11:47:28.150Z,828.00
2024-04-12T11:48:28.186Z,805.00
2024-04-12T11:49:28.672Z,816.00
2024-04-12T11:50:28.086Z,798.00
2024-04-12T11:51:28.082Z,782.00
2024-04-12T11:52:28.086Z,783.00
2024-04-12T11:53:28.100Z,782.00
2024-04-12T11:54:28.074Z,751.00
2024-04-12T11:55:29.368Z,758.00
2024-04-12T11:56:34.720Z,763.00
2024-04-12T11:57:28.093Z,760.00
2024-04-12T11:58:28.083Z,730.00
2024-04-12T11:59:35.182Z,735.00
2024-04-12T12:00:28.107Z,763.00
2024-04-12T12:01:28.076Z,737.00
2024-04-12T12:02:56.793Z,700.00
2024-04-12T12:03:28.172Z,764.00
2024-04-12T12:04:28.167Z,764.00
2024-04-12T12:05:28.103Z,729.00
2024-04-12T12:06:28.109Z,714.00
2024-04-12T12:07:28.143Z,711.00
2024-04-12T12:08:28.088Z,730.00
2024-04-12T12:09:28.095Z,740.00
2024-04-12T12:10:28.093Z,720.00
2024-04-12T12:11:28.113Z,715.00
2024-04-12T12:12:28.699Z,714.00
2024-04-12T12:13:28.109Z,716.00
2024-04-12T12:14:28.108Z,734.00
2024-04-12T12:15:28.149Z,736.00
2024-04-12T12:16:28.137Z,742.00
2024-04-12T12:17:28.132Z,755.00
2024-04-12T12:18:28.221Z,778.00
2024-04-12T12:19:28.125Z,821.00
2024-04-12T12:20:28.130Z,834.00
2024-04-12T12:21:31.183Z,842.00
2024-04-12T12:22:28.127Z,851.00
2024-04-12T12:23:28.133Z,830.00